sensor_id;sensor_type;location;lat;lon;timestamp;P1;durP1;ratioP1;P2;durP2;ratioP2
21152;SDS011;10734;44.792;20.482;2023-06-14T00:00:16;8.00;;;3.60;;
21152;SDS011;10734;44.792;20.482;2023-06-14T00:02:43;4.60;;;3.58;;
21152;SDS011;10734;44.792;20.482;2023-06-14T00:05:11;6.65;;;3.63;;
21152;SDS011;10734;44.792;20.482;2023-06-14T00:07:40;5.18;;;3.80;;
21152;SDS011;10734;44.792;20.482;2023-06-14T00:10:16;7.07;;;3.83;;
21152;SDS011;10734;44.792;20.482;2023-06-14T00:12:44;6.97;;;3.95;;
21152;SDS011;10734;44.792;20.482;2023-06-14T00:15:12;10.57;;;4.25;;
21152;SDS011;10734;44.792;20.482;2023-06-14T00:17:40;9.88;;;3.35;;
21152;SDS011;10734;44.792;20.482;2023-06-14T00:20:08;7.90;;;4.50;;
21152;SDS011;10734;44.792;20.482;2023-06-14T00:22:37;5.35;;;3.63;;
21152;SDS011;10734;44.792;20.482;2023-06-14T00:25:07;7.88;;;3.70;;
21152;SDS011;10734;44.792;20.482;2023-06-14T00:27:55;7.90;;;4.43;;
21152;SDS011;10734;44.792;20.482;2023-06-14T00:30:22;6.63;;;3.80;;
21152;SDS011;10734;44.792;20.482;2023-06-14T00:32:49;7.70;;;4.38;;
21152;SDS011;10734;44.792;20.482;2023-06-14T00:35:18;6.00;;;3.25;;
21152;SDS011;10734;44.792;20.482;2023-06-14T00:37:46;5.80;;;3.45;;
21152;SDS011;10734;44.792;20.482;2023-06-14T00:40:14;4.88;;;3.30;;
21152;SDS011;10734;44.792;20.482;2023-06-14T00:42:42;6.20;;;3.90;;
21152;SDS011;10734;44.792;20.482;2023-06-14T00:45:10;6.25;;;3.92;;
21152;SDS011;10734;44.792;20.482;2023-06-14T00:47:38;6.50;;;3.67;;
21152;SDS011;10734;44.792;20.482;2023-06-14T00:50:07;7.68;;;3.20;;
21152;SDS011;10734;44.792;20.482;2023-06-14T00:52:34;5.93;;;3.50;;
21152;SDS011;10734;44.792;20.482;2023-06-14T00:55:05;5.20;;;3.97;;
21152;SDS011;10734;44.792;20.482;2023-06-14T00:57:33;7.53;;;4.13;;
21152;SDS011;10734;44.792;20.482;2023-06-14T01:00:06;5.13;;;3.53;;
21152;SDS011;10734;44.792;20.482;2023-06-14T01:02:36;5.88;;;3.58;;
21152;SDS011;10734;44.792;20.482;2023-06-14T01:05:03;5.60;;;4.07;;
21152;SDS011;10734;44.792;20.482;2023-06-14T01:15:17;10.80;;;5.03;;
21152;SDS011;10734;44.792;20.482;2023-06-14T01:17:44;8.65;;;4.75;;
21152;SDS011;10734;44.792;20.482;2023-06-14T01:20:12;10.75;;;4.53;;
21152;SDS011;10734;44.792;20.482;2023-06-14T01:22:53;7.55;;;4.43;;
21152;SDS011;10734;44.792;20.482;2023-06-14T01:25:20;10.15;;;4.75;;
21152;SDS011;10734;44.792;20.482;2023-06-14T01:27:50;14.95;;;4.70;;
21152;SDS011;10734;44.792;20.482;2023-06-14T01:30:17;10.75;;;5.18;;
21152;SDS011;10734;44.792;20.482;2023-06-14T01:32:44;11.52;;;4.60;;
21152;SDS011;10734;44.792;20.482;2023-06-14T01:35:12;7.22;;;4.68;;
21152;SDS011;10734;44.792;20.482;2023-06-14T01:37:39;7.43;;;4.57;;
21152;SDS011;10734;44.792;20.482;2023-06-14T01:40:06;17.27;;;6.00;;
21152;SDS011;10734;44.792;20.482;2023-06-14T01:42:34;7.32;;;5.03;;
21152;SDS011;10734;44.792;20.482;2023-06-14T01:45:03;12.02;;;5.53;;
21152;SDS011;10734;44.792;20.482;2023-06-14T01:47:30;8.00;;;4.85;;
21152;SDS011;10734;44.792;20.482;2023-06-14T01:49:57;7.07;;;4.43;;
21152;SDS011;10734;44.792;20.482;2023-06-14T01:52:24;6.65;;;4.95;;
21152;SDS011;10734;44.792;20.482;2023-06-14T01:54:50;8.82;;;4.43;;
21152;SDS011;10734;44.792;20.482;2023-06-14T01:57:17;6.93;;;4.57;;
21152;SDS011;10734;44.792;20.482;2023-06-14T01:59:44;7.93;;;4.97;;
21152;SDS011;10734;44.792;20.482;2023-06-14T02:02:14;8.77;;;4.93;;
21152;SDS011;10734;44.792;20.482;2023-06-14T02:04:41;5.00;;;4.07;;
21152;SDS011;10734;44.792;20.482;2023-06-14T02:07:08;6.97;;;3.88;;
21152;SDS011;10734;44.792;20.482;2023-06-14T02:12:21;12.98;;;4.88;;
21152;SDS011;10734;44.792;20.482;2023-06-14T02:14:47;13.38;;;4.57;;
21152;SDS011;10734;44.792;20.482;2023-06-14T02:17:14;8.18;;;4.82;;
21152;SDS011;10734;44.792;20.482;2023-06-14T02:19:42;11.38;;;4.95;;
21152;SDS011;10734;44.792;20.482;2023-06-14T02:22:08;10.55;;;5.05;;
21152;SDS011;10734;44.792;20.482;2023-06-14T02:24:35;6.13;;;4.55;;
21152;SDS011;10734;44.792;20.482;2023-06-14T02:27:02;9.95;;;5.10;;
21152;SDS011;10734;44.792;20.482;2023-06-14T02:29:29;7.75;;;5.07;;
21152;SDS011;10734;44.792;20.482;2023-06-14T02:31:56;5.78;;;4.43;;
21152;SDS011;10734;44.792;20.482;2023-06-14T02:34:23;8.98;;;4.28;;
21152;SDS011;10734;44.792;20.482;2023-06-14T02:36:49;7.57;;;4.47;;
21152;SDS011;10734;44.792;20.482;2023-06-14T02:39:16;7.70;;;5.10;;
21152;SDS011;10734;44.792;20.482;2023-06-14T02:41:42;10.40;;;5.18;;
21152;SDS011;10734;44.792;20.482;2023-06-14T02:44:09;8.57;;;5.18;;
21152;SDS011;10734;44.792;20.482;2023-06-14T02:46:38;10.52;;;5.15;;
21152;SDS011;10734;44.792;20.482;2023-06-14T02:49:04;6.35;;;4.75;;
21152;SDS011;10734;44.792;20.482;2023-06-14T02:51:31;8.32;;;6.22;;
21152;SDS011;10734;44.792;20.482;2023-06-14T02:53:57;11.18;;;5.15;;
21152;SDS011;10734;44.792;20.482;2023-06-14T02:56:24;9.35;;;5.90;;
21152;SDS011;10734;44.792;20.482;2023-06-14T02:58:52;9.45;;;6.03;;
21152;SDS011;10734;44.792;20.482;2023-06-14T03:01:19;13.15;;;6.57;;
21152;SDS011;10734;44.792;20.482;2023-06-14T03:03:47;11.70;;;6.28;;
21152;SDS011;10734;44.792;20.482;2023-06-14T03:06:14;11.20;;;6.20;;
21152;SDS011;10734;44.792;20.482;2023-06-14T03:08:43;16.30;;;5.95;;
21152;SDS011;10734;44.792;20.482;2023-06-14T03:11:10;8.70;;;5.53;;
21152;SDS011;10734;44.792;20.482;2023-06-14T03:13:36;8.52;;;4.80;;
21152;SDS011;10734;44.792;20.482;2023-06-14T03:16:05;13.32;;;5.18;;
21152;SDS011;10734;44.792;20.482;2023-06-14T03:18:34;8.20;;;5.03;;
21152;SDS011;10734;44.792;20.482;2023-06-14T03:21:02;8.07;;;5.13;;
21152;SDS011;10734;44.792;20.482;2023-06-14T03:23:29;9.68;;;4.72;;
21152;SDS011;10734;44.792;20.482;2023-06-14T03:25:56;8.52;;;4.95;;
21152;SDS011;10734;44.792;20.482;2023-06-14T03:28:23;7.18;;;4.60;;
21152;SDS011;10734;44.792;20.482;2023-06-14T03:30:49;8.32;;;5.03;;
21152;SDS011;10734;44.792;20.482;2023-06-14T03:33:16;6.38;;;4.18;;
21152;SDS011;10734;44.792;20.482;2023-06-14T03:35:43;10.18;;;4.28;;
21152;SDS011;10734;44.792;20.482;2023-06-14T03:38:11;7.68;;;4.70;;
21152;SDS011;10734;44.792;20.482;2023-06-14T03:40:39;7.50;;;5.32;;
21152;SDS011;10734;44.792;20.482;2023-06-14T03:43:07;8.40;;;5.35;;
21152;SDS011;10734;44.792;20.482;2023-06-14T03:45:34;7.95;;;4.60;;
21152;SDS011;10734;44.792;20.482;2023-06-14T03:48:03;12.57;;;5.32;;
21152;SDS011;10734;44.792;20.482;2023-06-14T03:50:31;8.80;;;4.53;;
21152;SDS011;10734;44.792;20.482;2023-06-14T03:53:02;6.78;;;4.70;;
21152;SDS011;10734;44.792;20.482;2023-06-14T03:55:32;7.07;;;4.30;;
21152;SDS011;10734;44.792;20.482;2023-06-14T03:58:05;6.22;;;4.35;;
21152;SDS011;10734;44.792;20.482;2023-06-14T04:00:33;6.53;;;4.70;;
21152;SDS011;10734;44.792;20.482;2023-06-14T04:03:01;7.40;;;4.70;;
21152;SDS011;10734;44.792;20.482;2023-06-14T04:05:31;6.25;;;4.15;;
21152;SDS011;10734;44.792;20.482;2023-06-14T04:07:59;15.45;;;5.57;;
21152;SDS011;10734;44.792;20.482;2023-06-14T04:10:29;5.55;;;4.13;;
21152;SDS011;10734;44.792;20.482;2023-06-14T04:12:57;6.97;;;4.72;;
21152;SDS011;10734;44.792;20.482;2023-06-14T04:15:25;7.78;;;4.57;;
21152;SDS011;10734;44.792;20.482;2023-06-14T04:17:55;6.88;;;4.70;;
21152;SDS011;10734;44.792;20.482;2023-06-14T04:20:25;10.70;;;5.38;;
21152;SDS011;10734;44.792;20.482;2023-06-14T04:22:52;6.93;;;4.78;;
21152;SDS011;10734;44.792;20.482;2023-06-14T04:27:53;8.50;;;4.65;;
21152;SDS011;10734;44.792;20.482;2023-06-14T04:30:21;6.53;;;4.82;;
21152;SDS011;10734;44.792;20.482;2023-06-14T04:32:54;8.55;;;4.93;;
21152;SDS011;10734;44.792;20.482;2023-06-14T04:35:23;7.95;;;4.18;;
21152;SDS011;10734;44.792;20.482;2023-06-14T04:37:53;11.23;;;4.70;;
21152;SDS011;10734;44.792;20.482;2023-06-14T04:40:22;5.90;;;4.18;;
21152;SDS011;10734;44.792;20.482;2023-06-14T04:42:50;7.72;;;3.90;;
21152;SDS011;10734;44.792;20.482;2023-06-14T04:45:18;5.90;;;4.47;;
21152;SDS011;10734;44.792;20.482;2023-06-14T04:47:49;6.93;;;4.05;;
21152;SDS011;10734;44.792;20.482;2023-06-14T04:50:17;7.82;;;4.70;;
21152;SDS011;10734;44.792;20.482;2023-06-14T04:52:45;4.72;;;3.83;;
21152;SDS011;10734;44.792;20.482;2023-06-14T04:55:16;5.57;;;3.87;;
21152;SDS011;10734;44.792;20.482;2023-06-14T04:57:46;7.00;;;4.43;;
21152;SDS011;10734;44.792;20.482;2023-06-14T05:00:16;8.18;;;4.45;;
21152;SDS011;10734;44.792;20.482;2023-06-14T05:02:44;7.63;;;4.18;;
21152;SDS011;10734;44.792;20.482;2023-06-14T05:05:11;8.05;;;4.85;;
21152;SDS011;10734;44.792;20.482;2023-06-14T05:07:38;5.68;;;3.25;;
21152;SDS011;10734;44.792;20.482;2023-06-14T05:10:09;9.40;;;4.10;;
21152;SDS011;10734;44.792;20.482;2023-06-14T05:12:37;5.70;;;3.78;;
21152;SDS011;10734;44.792;20.482;2023-06-14T05:15:04;7.82;;;4.40;;
21152;SDS011;10734;44.792;20.482;2023-06-14T05:17:32;11.43;;;4.60;;
21152;SDS011;10734;44.792;20.482;2023-06-14T05:19:59;6.68;;;3.88;;
21152;SDS011;10734;44.792;20.482;2023-06-14T05:22:27;8.52;;;3.63;;
21152;SDS011;10734;44.792;20.482;2023-06-14T05:24:54;5.82;;;3.42;;
21152;SDS011;10734;44.792;20.482;2023-06-14T05:27:22;7.50;;;3.42;;
21152;SDS011;10734;44.792;20.482;2023-06-14T05:29:51;8.05;;;3.35;;
21152;SDS011;10734;44.792;20.482;2023-06-14T05:32:23;6.72;;;3.53;;
21152;SDS011;10734;44.792;20.482;2023-06-14T05:34:50;4.80;;;3.40;;
21152;SDS011;10734;44.792;20.482;2023-06-14T05:37:18;4.13;;;2.65;;
21152;SDS011;10734;44.792;20.482;2023-06-14T05:39:46;4.03;;;2.63;;
21152;SDS011;10734;44.792;20.482;2023-06-14T05:42:14;4.97;;;2.47;;
21152;SDS011;10734;44.792;20.482;2023-06-14T05:44:42;5.63;;;2.70;;
21152;SDS011;10734;44.792;20.482;2023-06-14T05:47:11;7.72;;;2.90;;
21152;SDS011;10734;44.792;20.482;2023-06-14T05:49:41;7.35;;;2.80;;
21152;SDS011;10734;44.792;20.482;2023-06-14T05:52:09;8.07;;;3.22;;
21152;SDS011;10734;44.792;20.482;2023-06-14T05:54:36;4.88;;;2.95;;
21152;SDS011;10734;44.792;20.482;2023-06-14T05:57:04;3.85;;;2.90;;
21152;SDS011;10734;44.792;20.482;2023-06-14T05:59:34;5.45;;;3.08;;
21152;SDS011;10734;44.792;20.482;2023-06-14T06:02:02;6.32;;;3.47;;
21152;SDS011;10734;44.792;20.482;2023-06-14T06:04:29;5.18;;;3.38;;
21152;SDS011;10734;44.792;20.482;2023-06-14T06:06:57;5.95;;;3.75;;
21152;SDS011;10734;44.792;20.482;2023-06-14T06:09:25;6.97;;;4.60;;
21152;SDS011;10734;44.792;20.482;2023-06-14T06:11:52;7.65;;;4.45;;
21152;SDS011;10734;44.792;20.482;2023-06-14T06:14:20;7.35;;;4.82;;
21152;SDS011;10734;44.792;20.482;2023-06-14T06:16:49;10.65;;;5.75;;
21152;SDS011;10734;44.792;20.482;2023-06-14T06:19:17;8.63;;;5.57;;
21152;SDS011;10734;44.792;20.482;2023-06-14T06:21:45;10.82;;;5.90;;
21152;SDS011;10734;44.792;20.482;2023-06-14T06:24:15;10.25;;;6.22;;
21152;SDS011;10734;44.792;20.482;2023-06-14T06:26:45;10.30;;;6.07;;
21152;SDS011;10734;44.792;20.482;2023-06-14T06:29:13;12.60;;;6.65;;
21152;SDS011;10734;44.792;20.482;2023-06-14T06:31:42;17.38;;;7.43;;
21152;SDS011;10734;44.792;20.482;2023-06-14T06:34:10;7.40;;;5.88;;
21152;SDS011;10734;44.792;20.482;2023-06-14T06:36:37;7.53;;;5.65;;
21152;SDS011;10734;44.792;20.482;2023-06-14T06:39:05;7.72;;;5.53;;
21152;SDS011;10734;44.792;20.482;2023-06-14T06:41:38;6.32;;;3.85;;
21152;SDS011;10734;44.792;20.482;2023-06-14T06:44:06;7.38;;;3.28;;
21152;SDS011;10734;44.792;20.482;2023-06-14T06:46:34;3.83;;;3.40;;
21152;SDS011;10734;44.792;20.482;2023-06-14T06:49:02;11.07;;;2.58;;
21152;SDS011;10734;44.792;20.482;2023-06-14T06:51:30;9.25;;;3.22;;
21152;SDS011;10734;44.792;20.482;2023-06-14T06:53:58;5.88;;;2.45;;
21152;SDS011;10734;44.792;20.482;2023-06-14T06:56:27;12.48;;;2.75;;
21152;SDS011;10734;44.792;20.482;2023-06-14T06:58:55;5.75;;;2.42;;
21152;SDS011;10734;44.792;20.482;2023-06-14T07:01:22;4.10;;;2.85;;
21152;SDS011;10734;44.792;20.482;2023-06-14T07:03:52;5.60;;;2.28;;
21152;SDS011;10734;44.792;20.482;2023-06-14T07:06:19;3.83;;;2.40;;
21152;SDS011;10734;44.792;20.482;2023-06-14T07:08:49;4.30;;;2.55;;
21152;SDS011;10734;44.792;20.482;2023-06-14T07:11:16;7.25;;;3.28;;
21152;SDS011;10734;44.792;20.482;2023-06-14T07:13:43;5.13;;;2.75;;
21152;SDS011;10734;44.792;20.482;2023-06-14T07:16:09;3.58;;;3.03;;
21152;SDS011;10734;44.792;20.482;2023-06-14T07:18:37;3.85;;;2.80;;
21152;SDS011;10734;44.792;20.482;2023-06-14T07:21:04;5.40;;;2.92;;
21152;SDS011;10734;44.792;20.482;2023-06-14T07:23:31;4.90;;;2.83;;
21152;SDS011;10734;44.792;20.482;2023-06-14T07:26:01;6.57;;;2.92;;
21152;SDS011;10734;44.792;20.482;2023-06-14T07:28:27;6.53;;;2.92;;
21152;SDS011;10734;44.792;20.482;2023-06-14T07:30:55;6.13;;;3.75;;
21152;SDS011;10734;44.792;20.482;2023-06-14T07:33:22;8.45;;;3.47;;
21152;SDS011;10734;44.792;20.482;2023-06-14T07:35:49;7.38;;;3.13;;
21152;SDS011;10734;44.792;20.482;2023-06-14T07:38:16;6.50;;;3.65;;
21152;SDS011;10734;44.792;20.482;2023-06-14T07:40:43;4.35;;;2.97;;
21152;SDS011;10734;44.792;20.482;2023-06-14T07:43:13;7.85;;;3.50;;
21152;SDS011;10734;44.792;20.482;2023-06-14T07:45:40;6.50;;;3.55;;
21152;SDS011;10734;44.792;20.482;2023-06-14T07:48:16;5.65;;;3.50;;
21152;SDS011;10734;44.792;20.482;2023-06-14T07:50:43;6.43;;;3.40;;
21152;SDS011;10734;44.792;20.482;2023-06-14T07:53:10;9.65;;;4.30;;
21152;SDS011;10734;44.792;20.482;2023-06-14T07:55:52;6.95;;;3.65;;
21152;SDS011;10734;44.792;20.482;2023-06-14T07:58:19;4.88;;;3.08;;
21152;SDS011;10734;44.792;20.482;2023-06-14T08:00:46;6.72;;;3.70;;
21152;SDS011;10734;44.792;20.482;2023-06-14T08:03:13;6.25;;;3.38;;
21152;SDS011;10734;44.792;20.482;2023-06-14T08:05:42;6.05;;;3.88;;
21152;SDS011;10734;44.792;20.482;2023-06-14T08:08:09;11.30;;;3.97;;
21152;SDS011;10734;44.792;20.482;2023-06-14T08:10:36;7.38;;;3.95;;
21152;SDS011;10734;44.792;20.482;2023-06-14T08:13:03;7.78;;;3.55;;
21152;SDS011;10734;44.792;20.482;2023-06-14T08:15:30;9.95;;;3.75;;
21152;SDS011;10734;44.792;20.482;2023-06-14T08:17:58;7.15;;;3.67;;
21152;SDS011;10734;44.792;20.482;2023-06-14T08:20:26;5.13;;;2.90;;
21152;SDS011;10734;44.792;20.482;2023-06-14T08:22:53;7.35;;;3.33;;
21152;SDS011;10734;44.792;20.482;2023-06-14T08:25:23;12.75;;;3.55;;
21152;SDS011;10734;44.792;20.482;2023-06-14T08:27:51;11.68;;;4.63;;
21152;SDS011;10734;44.792;20.482;2023-06-14T08:30:18;7.55;;;3.67;;
21152;SDS011;10734;44.792;20.482;2023-06-14T08:32:45;5.85;;;3.90;;
21152;SDS011;10734;44.792;20.482;2023-06-14T08:35:15;3.90;;;3.15;;
21152;SDS011;10734;44.792;20.482;2023-06-14T08:37:43;6.43;;;3.53;;
21152;SDS011;10734;44.792;20.482;2023-06-14T08:40:20;9.68;;;3.33;;
21152;SDS011;10734;44.792;20.482;2023-06-14T08:42:53;11.93;;;3.08;;
21152;SDS011;10734;44.792;20.482;2023-06-14T08:45:21;8.43;;;3.30;;
21152;SDS011;10734;44.792;20.482;2023-06-14T08:47:53;7.93;;;2.80;;
21152;SDS011;10734;44.792;20.482;2023-06-14T08:52:58;5.65;;;3.00;;
21152;SDS011;10734;44.792;20.482;2023-06-14T08:55:29;6.45;;;2.90;;
21152;SDS011;10734;44.792;20.482;2023-06-14T08:58:02;5.45;;;2.30;;
21152;SDS011;10734;44.792;20.482;2023-06-14T09:00:31;4.47;;;2.70;;
21152;SDS011;10734;44.792;20.482;2023-06-14T09:03:00;9.43;;;2.88;;
21152;SDS011;10734;44.792;20.482;2023-06-14T09:05:27;3.83;;;2.33;;
21152;SDS011;10734;44.792;20.482;2023-06-14T09:07:55;3.58;;;2.20;;
21152;SDS011;10734;44.792;20.482;2023-06-14T09:10:23;2.45;;;1.95;;
21152;SDS011;10734;44.792;20.482;2023-06-14T09:12:54;2.73;;;2.17;;
21152;SDS011;10734;44.792;20.482;2023-06-14T09:15:22;5.07;;;2.22;;
21152;SDS011;10734;44.792;20.482;2023-06-14T09:17:49;4.15;;;2.25;;
21152;SDS011;10734;44.792;20.482;2023-06-14T09:20:16;5.93;;;2.40;;
21152;SDS011;10734;44.792;20.482;2023-06-14T09:22:46;2.40;;;2.13;;
21152;SDS011;10734;44.792;20.482;2023-06-14T09:25:13;2.58;;;2.13;;
21152;SDS011;10734;44.792;20.482;2023-06-14T09:27:58;4.10;;;2.10;;
21152;SDS011;10734;44.792;20.482;2023-06-14T09:30:27;4.47;;;2.40;;
21152;SDS011;10734;44.792;20.482;2023-06-14T09:32:54;3.65;;;2.13;;
21152;SDS011;10734;44.792;20.482;2023-06-14T09:35:25;2.30;;;2.03;;
21152;SDS011;10734;44.792;20.482;2023-06-14T09:37:52;3.15;;;2.13;;
21152;SDS011;10734;44.792;20.482;2023-06-14T09:40:21;4.05;;;1.90;;
21152;SDS011;10734;44.792;20.482;2023-06-14T09:42:49;5.18;;;1.92;;
21152;SDS011;10734;44.792;20.482;2023-06-14T09:45:17;4.13;;;2.28;;
21152;SDS011;10734;44.792;20.482;2023-06-14T09:47:51;2.87;;;2.03;;
21152;SDS011;10734;44.792;20.482;2023-06-14T09:50:31;4.95;;;2.47;;
21152;SDS011;10734;44.792;20.482;2023-06-14T09:53:00;4.03;;;2.50;;
21152;SDS011;10734;44.792;20.482;2023-06-14T09:55:34;3.97;;;2.08;;
21152;SDS011;10734;44.792;20.482;2023-06-14T09:58:05;3.67;;;2.22;;
21152;SDS011;10734;44.792;20.482;2023-06-14T10:00:34;3.90;;;2.00;;
21152;SDS011;10734;44.792;20.482;2023-06-14T10:03:14;5.00;;;2.10;;
21152;SDS011;10734;44.792;20.482;2023-06-14T10:05:49;5.32;;;1.95;;
21152;SDS011;10734;44.792;20.482;2023-06-14T10:08:18;3.85;;;1.80;;
21152;SDS011;10734;44.792;20.482;2023-06-14T10:10:55;3.40;;;2.03;;
21152;SDS011;10734;44.792;20.482;2023-06-14T10:13:23;4.35;;;1.98;;
21152;SDS011;10734;44.792;20.482;2023-06-14T10:23:53;3.20;;;2.40;;
21152;SDS011;10734;44.792;20.482;2023-06-14T10:26:24;3.72;;;2.10;;
21152;SDS011;10734;44.792;20.482;2023-06-14T10:28:59;4.05;;;2.45;;
21152;SDS011;10734;44.792;20.482;2023-06-14T10:31:41;3.30;;;2.05;;
21152;SDS011;10734;44.792;20.482;2023-06-14T10:34:25;3.17;;;2.25;;
21152;SDS011;10734;44.792;20.482;2023-06-14T10:39:31;3.83;;;1.90;;
21152;SDS011;10734;44.792;20.482;2023-06-14T10:41:58;2.00;;;1.80;;
21152;SDS011;10734;44.792;20.482;2023-06-14T10:44:31;5.15;;;1.85;;
21152;SDS011;10734;44.792;20.482;2023-06-14T10:47:00;3.33;;;2.40;;
21152;SDS011;10734;44.792;20.482;2023-06-14T10:49:40;4.10;;;2.30;;
21152;SDS011;10734;44.792;20.482;2023-06-14T10:52:13;4.30;;;2.28;;
21152;SDS011;10734;44.792;20.482;2023-06-14T10:57:23;6.70;;;2.20;;
21152;SDS011;10734;44.792;20.482;2023-06-14T10:59:50;2.25;;;1.75;;
21152;SDS011;10734;44.792;20.482;2023-06-14T11:05:08;3.55;;;2.40;;
21152;SDS011;10734;44.792;20.482;2023-06-14T11:13:08;2.72;;;2.13;;
21152;SDS011;10734;44.792;20.482;2023-06-14T11:15:37;2.50;;;2.30;;
21152;SDS011;10734;44.792;20.482;2023-06-14T11:18:05;5.57;;;1.77;;
21152;SDS011;10734;44.792;20.482;2023-06-14T11:20:34;3.25;;;2.00;;
21152;SDS011;10734;44.792;20.482;2023-06-14T11:23:03;7.30;;;2.33;;
21152;SDS011;10734;44.792;20.482;2023-06-14T11:25:32;6.57;;;2.25;;
21152;SDS011;10734;44.792;20.482;2023-06-14T11:27:59;6.43;;;2.30;;
21152;SDS011;10734;44.792;20.482;2023-06-14T11:30:26;5.47;;;1.88;;
21152;SDS011;10734;44.792;20.482;2023-06-14T11:32:54;5.35;;;2.50;;
21152;SDS011;10734;44.792;20.482;2023-06-14T11:35:24;5.32;;;1.95;;
21152;SDS011;10734;44.792;20.482;2023-06-14T11:37:53;5.55;;;1.80;;
21152;SDS011;10734;44.792;20.482;2023-06-14T11:40:24;4.25;;;2.15;;
21152;SDS011;10734;44.792;20.482;2023-06-14T11:43:01;6.68;;;2.30;;
21152;SDS011;10734;44.792;20.482;2023-06-14T11:45:29;3.08;;;2.30;;
21152;SDS011;10734;44.792;20.482;2023-06-14T11:48:00;3.35;;;2.17;;
21152;SDS011;10734;44.792;20.482;2023-06-14T11:50:28;4.57;;;2.40;;
21152;SDS011;10734;44.792;20.482;2023-06-14T11:52:55;4.63;;;1.85;;
21152;SDS011;10734;44.792;20.482;2023-06-14T11:55:40;4.88;;;2.30;;
21152;SDS011;10734;44.792;20.482;2023-06-14T11:58:07;3.55;;;2.60;;
21152;SDS011;10734;44.792;20.482;2023-06-14T12:00:35;2.33;;;1.95;;
21152;SDS011;10734;44.792;20.482;2023-06-14T12:03:03;3.78;;;2.45;;
21152;SDS011;10734;44.792;20.482;2023-06-14T12:05:30;3.20;;;2.05;;
21152;SDS011;10734;44.792;20.482;2023-06-14T12:07:58;5.78;;;2.22;;
21152;SDS011;10734;44.792;20.482;2023-06-14T12:10:26;2.85;;;2.33;;
21152;SDS011;10734;44.792;20.482;2023-06-14T12:13:00;2.70;;;2.50;;
21152;SDS011;10734;44.792;20.482;2023-06-14T12:15:30;11.35;;;2.95;;
21152;SDS011;10734;44.792;20.482;2023-06-14T12:17:58;3.92;;;2.55;;
21152;SDS011;10734;44.792;20.482;2023-06-14T12:20:29;4.78;;;2.42;;
21152;SDS011;10734;44.792;20.482;2023-06-14T12:23:02;8.27;;;2.50;;
21152;SDS011;10734;44.792;20.482;2023-06-14T12:25:32;3.85;;;2.42;;
21152;SDS011;10734;44.792;20.482;2023-06-14T12:28:07;3.05;;;2.22;;
21152;SDS011;10734;44.792;20.482;2023-06-14T12:30:36;5.15;;;2.40;;
21152;SDS011;10734;44.792;20.482;2023-06-14T12:33:04;5.53;;;2.42;;
21152;SDS011;10734;44.792;20.482;2023-06-14T12:35:32;3.33;;;2.20;;
21152;SDS011;10734;44.792;20.482;2023-06-14T12:37:59;8.73;;;2.80;;
21152;SDS011;10734;44.792;20.482;2023-06-14T12:40:26;6.90;;;2.40;;
21152;SDS011;10734;44.792;20.482;2023-06-14T12:42:54;4.95;;;2.60;;
21152;SDS011;10734;44.792;20.482;2023-06-14T12:45:20;3.78;;;2.30;;
21152;SDS011;10734;44.792;20.482;2023-06-14T12:47:48;5.82;;;2.22;;
21152;SDS011;10734;44.792;20.482;2023-06-14T12:50:15;4.78;;;2.50;;
21152;SDS011;10734;44.792;20.482;2023-06-14T12:52:42;3.13;;;2.58;;
21152;SDS011;10734;44.792;20.482;2023-06-14T12:55:11;4.60;;;2.22;;
21152;SDS011;10734;44.792;20.482;2023-06-14T12:57:38;2.65;;;2.25;;
21152;SDS011;10734;44.792;20.482;2023-06-14T13:00:06;3.17;;;2.30;;
21152;SDS011;10734;44.792;20.482;2023-06-14T13:02:34;10.05;;;2.67;;
21152;SDS011;10734;44.792;20.482;2023-06-14T13:05:02;10.10;;;2.63;;
21152;SDS011;10734;44.792;20.482;2023-06-14T13:07:30;3.08;;;2.00;;
21152;SDS011;10734;44.792;20.482;2023-06-14T13:09:57;6.22;;;2.17;;
21152;SDS011;10734;44.792;20.482;2023-06-14T13:12:25;3.20;;;2.40;;
21152;SDS011;10734;44.792;20.482;2023-06-14T13:14:52;3.80;;;2.47;;
21152;SDS011;10734;44.792;20.482;2023-06-14T13:17:19;2.50;;;2.17;;
21152;SDS011;10734;44.792;20.482;2023-06-14T13:19:46;4.70;;;2.95;;
21152;SDS011;10734;44.792;20.482;2023-06-14T13:22:13;6.53;;;2.55;;
21152;SDS011;10734;44.792;20.482;2023-06-14T13:24:41;4.03;;;2.28;;
21152;SDS011;10734;44.792;20.482;2023-06-14T13:27:09;3.35;;;2.42;;
21152;SDS011;10734;44.792;20.482;2023-06-14T13:29:37;3.80;;;2.42;;
21152;SDS011;10734;44.792;20.482;2023-06-14T13:32:04;7.63;;;3.22;;
21152;SDS011;10734;44.792;20.482;2023-06-14T13:34:31;4.93;;;2.63;;
21152;SDS011;10734;44.792;20.482;2023-06-14T13:36:59;7.13;;;3.10;;
21152;SDS011;10734;44.792;20.482;2023-06-14T13:39:25;2.58;;;2.17;;
21152;SDS011;10734;44.792;20.482;2023-06-14T13:41:55;5.50;;;2.47;;
21152;SDS011;10734;44.792;20.482;2023-06-14T13:44:22;7.53;;;2.70;;
21152;SDS011;10734;44.792;20.482;2023-06-14T13:46:49;7.43;;;2.15;;
21152;SDS011;10734;44.792;20.482;2023-06-14T13:49:17;4.43;;;2.50;;
21152;SDS011;10734;44.792;20.482;2023-06-14T13:51:43;4.80;;;2.70;;
21152;SDS011;10734;44.792;20.482;2023-06-14T13:54:12;9.65;;;2.58;;
21152;SDS011;10734;44.792;20.482;2023-06-14T13:56:41;5.60;;;2.88;;
21152;SDS011;10734;44.792;20.482;2023-06-14T13:59:08;3.78;;;2.30;;
21152;SDS011;10734;44.792;20.482;2023-06-14T14:01:36;6.75;;;2.40;;
21152;SDS011;10734;44.792;20.482;2023-06-14T14:04:03;4.63;;;3.03;;
21152;SDS011;10734;44.792;20.482;2023-06-14T14:06:33;6.30;;;2.53;;
21152;SDS011;10734;44.792;20.482;2023-06-14T14:09:00;5.30;;;2.83;;
21152;SDS011;10734;44.792;20.482;2023-06-14T14:11:27;4.60;;;2.70;;
21152;SDS011;10734;44.792;20.482;2023-06-14T14:13:57;3.85;;;2.80;;
21152;SDS011;10734;44.792;20.482;2023-06-14T14:16:24;2.63;;;2.42;;
21152;SDS011;10734;44.792;20.482;2023-06-14T14:18:53;5.53;;;2.90;;
21152;SDS011;10734;44.792;20.482;2023-06-14T14:21:20;8.07;;;2.50;;
21152;SDS011;10734;44.792;20.482;2023-06-14T14:23:46;5.63;;;2.42;;
21152;SDS011;10734;44.792;20.482;2023-06-14T14:26:14;4.57;;;2.60;;
21152;SDS011;10734;44.792;20.482;2023-06-14T14:28:41;3.55;;;2.72;;
21152;SDS011;10734;44.792;20.482;2023-06-14T14:31:08;4.38;;;2.65;;
21152;SDS011;10734;44.792;20.482;2023-06-14T14:33:39;5.35;;;2.80;;
21152;SDS011;10734;44.792;20.482;2023-06-14T14:36:06;6.72;;;3.15;;
21152;SDS011;10734;44.792;20.482;2023-06-14T14:38:33;4.85;;;2.67;;
21152;SDS011;10734;44.792;20.482;2023-06-14T14:41:02;6.70;;;2.50;;
21152;SDS011;10734;44.792;20.482;2023-06-14T14:43:29;5.50;;;3.10;;
21152;SDS011;10734;44.792;20.482;2023-06-14T14:45:57;5.38;;;2.80;;
21152;SDS011;10734;44.792;20.482;2023-06-14T14:48:25;8.05;;;2.83;;
21152;SDS011;10734;44.792;20.482;2023-06-14T14:50:52;4.93;;;2.95;;
21152;SDS011;10734;44.792;20.482;2023-06-14T14:53:23;5.38;;;2.70;;
21152;SDS011;10734;44.792;20.482;2023-06-14T14:55:50;8.65;;;3.90;;
21152;SDS011;10734;44.792;20.482;2023-06-14T14:58:17;7.63;;;3.33;;
21152;SDS011;10734;44.792;20.482;2023-06-14T15:00:45;4.45;;;3.03;;
21152;SDS011;10734;44.792;20.482;2023-06-14T15:03:13;4.43;;;3.22;;
21152;SDS011;10734;44.792;20.482;2023-06-14T15:05:40;3.83;;;3.03;;
21152;SDS011;10734;44.792;20.482;2023-06-14T15:08:08;5.15;;;3.40;;
21152;SDS011;10734;44.792;20.482;2023-06-14T15:10:38;3.80;;;2.90;;
21152;SDS011;10734;44.792;20.482;2023-06-14T15:13:09;5.77;;;3.60;;
21152;SDS011;10734;44.792;20.482;2023-06-14T15:15:36;7.53;;;2.97;;
21152;SDS011;10734;44.792;20.482;2023-06-14T15:18:04;4.47;;;3.08;;